sensor_id;sensor_type;location;lat;lon;timestamp;P1;durP1;ratioP1;P2;durP2;ratioP2
68888;SDS011;55930;47.412;8.790;2023-12-04T00:02:27;15.67;;;10.13;;
68888;SDS011;55930;47.412;8.790;2023-12-04T00:05:48;20.10;;;11.83;;
68888;SDS011;55930;47.412;8.790;2023-12-04T00:09:08;18.10;;;11.47;;
68888;SDS011;55930;47.412;8.790;2023-12-04T00:12:28;20.40;;;12.43;;
68888;SDS011;55930;47.412;8.790;2023-12-04T00:15:49;18.57;;;11.33;;
68888;SDS011;55930;47.412;8.790;2023-12-04T00:19:09;16.33;;;11.17;;
68888;SDS011;55930;47.412;8.790;2023-12-04T00:22:30;21.63;;;12.33;;
68888;SDS011;55930;47.412;8.790;2023-12-04T00:25:50;20.00;;;12.93;;
68888;SDS011;55930;47.412;8.790;2023-12-04T00:29:13;21.38;;;13.05;;
68888;SDS011;55930;47.412;8.790;2023-12-04T00:32:33;26.37;;;15.27;;
68888;SDS011;55930;47.412;8.790;2023-12-04T00:35:54;29.00;;;15.43;;
68888;SDS011;55930;47.412;8.790;2023-12-04T00:39:14;38.03;;;16.60;;
68888;SDS011;55930;47.412;8.790;2023-12-04T00:42:35;39.00;;;18.10;;
68888;SDS011;55930;47.412;8.790;2023-12-04T00:45:58;43.55;;;19.58;;
68888;SDS011;55930;47.412;8.790;2023-12-04T00:49:18;30.67;;;14.00;;
68888;SDS011;55930;47.412;8.790;2023-12-04T00:52:39;42.20;;;19.10;;
68888;SDS011;55930;47.412;8.790;2023-12-04T00:56:01;42.53;;;20.48;;
68888;SDS011;55930;47.412;8.790;2023-12-04T00:59:24;41.60;;;17.98;;
68888;SDS011;55930;47.412;8.790;2023-12-04T01:02:47;40.55;;;18.75;;
68888;SDS011;55930;47.412;8.790;2023-12-04T01:06:07;45.07;;;19.37;;
68888;SDS011;55930;47.412;8.790;2023-12-04T01:09:28;23.70;;;12.13;;
68888;SDS011;55930;47.412;8.790;2023-12-04T01:12:48;48.30;;;19.60;;
68888;SDS011;55930;47.412;8.790;2023-12-04T01:16:08;28.67;;;14.73;;
68888;SDS011;55930;47.412;8.790;2023-12-04T01:19:29;25.13;;;14.02;;
68888;SDS011;55930;47.412;8.790;2023-12-04T01:22:50;22.30;;;12.97;;
68888;SDS011;55930;47.412;8.790;2023-12-04T01:26:10;24.77;;;13.33;;
68888;SDS011;55930;47.412;8.790;2023-12-04T01:32:52;27.83;;;13.33;;
68888;SDS011;55930;47.412;8.790;2023-12-04T01:36:12;29.13;;;15.47;;
68888;SDS011;55930;47.412;8.790;2023-12-04T01:39:33;33.90;;;13.97;;
68888;SDS011;55930;47.412;8.790;2023-12-04T01:42:53;30.27;;;14.33;;
68888;SDS011;55930;47.412;8.790;2023-12-04T01:46:15;29.70;;;15.23;;
68888;SDS011;55930;47.412;8.790;2023-12-04T01:49:37;31.15;;;15.40;;
68888;SDS011;55930;47.412;8.790;2023-12-04T01:53:00;33.53;;;16.50;;
68888;SDS011;55930;47.412;8.790;2023-12-04T01:56:23;34.72;;;15.90;;
68888;SDS011;55930;47.412;8.790;2023-12-04T01:59:44;41.57;;;14.87;;
68888;SDS011;55930;47.412;8.790;2023-12-04T02:03:05;45.47;;;18.15;;
68888;SDS011;55930;47.412;8.790;2023-12-04T02:06:28;31.60;;;15.15;;
68888;SDS011;55930;47.412;8.790;2023-12-04T02:09:48;34.37;;;12.07;;
68888;SDS011;55930;47.412;8.790;2023-12-04T02:13:08;29.57;;;17.00;;
68888;SDS011;55930;47.412;8.790;2023-12-04T02:16:29;24.77;;;13.20;;
68888;SDS011;55930;47.412;8.790;2023-12-04T02:19:52;27.92;;;16.25;;
68888;SDS011;55930;47.412;8.790;2023-12-04T02:23:13;26.33;;;13.68;;
68888;SDS011;55930;47.412;8.790;2023-12-04T02:26:37;22.33;;;13.13;;
68888;SDS011;55930;47.412;8.790;2023-12-04T02:30:03;26.67;;;14.88;;
68888;SDS011;55930;47.412;8.790;2023-12-04T02:33:31;27.70;;;14.85;;
68888;SDS011;55930;47.412;8.790;2023-12-04T02:36:54;26.27;;;14.63;;
68888;SDS011;55930;47.412;8.790;2023-12-04T02:40:16;22.92;;;12.98;;
68888;SDS011;55930;47.412;8.790;2023-12-04T02:43:39;25.65;;;14.45;;
68888;SDS011;55930;47.412;8.790;2023-12-04T02:46:59;21.93;;;12.37;;
68888;SDS011;55930;47.412;8.790;2023-12-04T02:50:20;23.27;;;12.97;;
68888;SDS011;55930;47.412;8.790;2023-12-04T02:53:43;20.23;;;12.00;;
68888;SDS011;55930;47.412;8.790;2023-12-04T02:57:03;17.73;;;11.68;;
68888;SDS011;55930;47.412;8.790;2023-12-04T03:00:24;25.02;;;14.18;;
68888;SDS011;55930;47.412;8.790;2023-12-04T03:03:44;27.93;;;15.93;;
68888;SDS011;55930;47.412;8.790;2023-12-04T03:07:07;26.27;;;14.90;;
68888;SDS011;55930;47.412;8.790;2023-12-04T03:10:27;18.80;;;9.70;;
68888;SDS011;55930;47.412;8.790;2023-12-04T03:13:48;20.07;;;11.57;;
68888;SDS011;55930;47.412;8.790;2023-12-04T03:17:08;19.17;;;11.20;;
68888;SDS011;55930;47.412;8.790;2023-12-04T03:20:28;18.93;;;10.77;;
68888;SDS011;55930;47.412;8.790;2023-12-04T03:23:51;25.07;;;12.83;;
68888;SDS011;55930;47.412;8.790;2023-12-04T03:27:11;23.35;;;13.50;;
68888;SDS011;55930;47.412;8.790;2023-12-04T03:30:32;21.13;;;12.60;;
68888;SDS011;55930;47.412;8.790;2023-12-04T03:33:55;35.22;;;13.52;;
68888;SDS011;55930;47.412;8.790;2023-12-04T03:37:15;26.40;;;14.27;;
68888;SDS011;55930;47.412;8.790;2023-12-04T03:40:35;27.33;;;14.10;;
68888;SDS011;55930;47.412;8.790;2023-12-04T03:43:56;28.13;;;14.73;;
68888;SDS011;55930;47.412;8.790;2023-12-04T03:47:21;25.35;;;13.68;;
68888;SDS011;55930;47.412;8.790;2023-12-04T03:50:43;33.13;;;16.33;;
68888;SDS011;55930;47.412;8.790;2023-12-04T03:54:03;40.80;;;17.10;;
68888;SDS011;55930;47.412;8.790;2023-12-04T03:57:23;33.70;;;17.63;;
68888;SDS011;55930;47.412;8.790;2023-12-04T04:00:44;39.83;;;17.43;;
68888;SDS011;55930;47.412;8.790;2023-12-04T04:04:04;38.70;;;17.37;;
68888;SDS011;55930;47.412;8.790;2023-12-04T04:07:24;39.17;;;17.77;;
68888;SDS011;55930;47.412;8.790;2023-12-04T04:10:46;52.38;;;17.25;;
68888;SDS011;55930;47.412;8.790;2023-12-04T04:14:07;35.77;;;19.00;;
68888;SDS011;55930;47.412;8.790;2023-12-04T04:17:27;35.37;;;15.80;;
68888;SDS011;55930;47.412;8.790;2023-12-04T04:20:48;42.33;;;19.43;;
68888;SDS011;55930;47.412;8.790;2023-12-04T04:24:08;45.57;;;19.87;;
68888;SDS011;55930;47.412;8.790;2023-12-04T04:27:28;39.67;;;19.60;;
68888;SDS011;55930;47.412;8.790;2023-12-04T04:30:49;34.03;;;17.17;;
68888;SDS011;55930;47.412;8.790;2023-12-04T04:34:09;30.07;;;15.77;;
68888;SDS011;55930;47.412;8.790;2023-12-04T04:37:29;30.97;;;15.03;;
68888;SDS011;55930;47.412;8.790;2023-12-04T04:40:50;26.30;;;12.90;;
68888;SDS011;55930;47.412;8.790;2023-12-04T04:44:12;24.35;;;13.43;;
68888;SDS011;55930;47.412;8.790;2023-12-04T04:47:34;24.55;;;12.75;;
68888;SDS011;55930;47.412;8.790;2023-12-04T04:50:55;21.33;;;11.27;;
68888;SDS011;55930;47.412;8.790;2023-12-04T04:54:15;27.40;;;14.23;;
68888;SDS011;55930;47.412;8.790;2023-12-04T04:57:35;25.30;;;12.63;;
68888;SDS011;55930;47.412;8.790;2023-12-04T05:00:56;20.57;;;11.03;;
68888;SDS011;55930;47.412;8.790;2023-12-04T05:04:16;24.10;;;13.27;;
68888;SDS011;55930;47.412;8.790;2023-12-04T05:07:36;29.63;;;13.90;;
68888;SDS011;55930;47.412;8.790;2023-12-04T05:10:57;26.53;;;14.77;;
68888;SDS011;55930;47.412;8.790;2023-12-04T05:14:17;25.20;;;12.77;;
68888;SDS011;55930;47.412;8.790;2023-12-04T05:17:37;24.67;;;12.17;;
68888;SDS011;55930;47.412;8.790;2023-12-04T05:20:58;25.43;;;13.97;;
68888;SDS011;55930;47.412;8.790;2023-12-04T05:24:18;30.03;;;14.13;;
68888;SDS011;55930;47.412;8.790;2023-12-04T05:27:39;19.17;;;10.90;;
68888;SDS011;55930;47.412;8.790;2023-12-04T05:30:59;24.37;;;12.93;;
68888;SDS011;55930;47.412;8.790;2023-12-04T05:34:19;32.43;;;14.83;;
68888;SDS011;55930;47.412;8.790;2023-12-04T05:37:42;30.63;;;15.90;;
68888;SDS011;55930;47.412;8.790;2023-12-04T05:41:03;35.03;;;19.33;;
68888;SDS011;55930;47.412;8.790;2023-12-04T05:44:23;36.73;;;17.23;;
68888;SDS011;55930;47.412;8.790;2023-12-04T05:47:44;27.27;;;14.37;;
68888;SDS011;55930;47.412;8.790;2023-12-04T05:51:04;24.60;;;13.07;;
68888;SDS011;55930;47.412;8.790;2023-12-04T05:54:28;24.93;;;13.50;;
68888;SDS011;55930;47.412;8.790;2023-12-04T05:57:48;25.08;;;14.43;;
68888;SDS011;55930;47.412;8.790;2023-12-04T06:01:12;32.78;;;16.58;;
68888;SDS011;55930;47.412;8.790;2023-12-04T06:04:32;26.30;;;14.53;;
68888;SDS011;55930;47.412;8.790;2023-12-04T06:07:52;22.60;;;12.87;;
68888;SDS011;55930;47.412;8.790;2023-12-04T06:11:13;29.87;;;17.50;;
68888;SDS011;55930;47.412;8.790;2023-12-04T06:14:34;17.48;;;9.85;;
68888;SDS011;55930;47.412;8.790;2023-12-04T06:17:55;27.05;;;14.65;;
68888;SDS011;55930;47.412;8.790;2023-12-04T06:21:15;27.33;;;15.33;;
68888;SDS011;55930;47.412;8.790;2023-12-04T06:24:35;26.87;;;15.33;;
68888;SDS011;55930;47.412;8.790;2023-12-04T06:27:56;22.27;;;13.33;;
68888;SDS011;55930;47.412;8.790;2023-12-04T06:31:17;20.55;;;13.23;;
68888;SDS011;55930;47.412;8.790;2023-12-04T06:34:37;19.97;;;12.60;;
68888;SDS011;55930;47.412;8.790;2023-12-04T06:37:59;15.07;;;9.13;;
68888;SDS011;55930;47.412;8.790;2023-12-04T06:41:26;23.85;;;12.32;;
68888;SDS011;55930;47.412;8.790;2023-12-04T06:44:46;20.60;;;10.70;;
68888;SDS011;55930;47.412;8.790;2023-12-04T06:48:07;20.60;;;10.30;;
68888;SDS011;55930;47.412;8.790;2023-12-04T06:51:29;18.65;;;10.38;;
68888;SDS011;55930;47.412;8.790;2023-12-04T06:54:49;17.27;;;10.47;;
68888;SDS011;55930;47.412;8.790;2023-12-04T06:58:12;18.30;;;10.55;;
68888;SDS011;55930;47.412;8.790;2023-12-04T07:01:35;20.58;;;11.95;;
68888;SDS011;55930;47.412;8.790;2023-12-04T07:04:56;15.00;;;9.67;;
68888;SDS011;55930;47.412;8.790;2023-12-04T07:08:18;18.77;;;10.15;;
68888;SDS011;55930;47.412;8.790;2023-12-04T07:11:38;19.17;;;12.27;;
68888;SDS011;55930;47.412;8.790;2023-12-04T07:14:59;25.20;;;13.90;;
68888;SDS011;55930;47.412;8.790;2023-12-04T07:18:19;18.33;;;10.07;;
68888;SDS011;55930;47.412;8.790;2023-12-04T07:21:40;20.70;;;11.43;;
68888;SDS011;55930;47.412;8.790;2023-12-04T07:25:01;20.75;;;12.40;;
68888;SDS011;55930;47.412;8.790;2023-12-04T07:28:21;22.80;;;12.43;;
68888;SDS011;55930;47.412;8.790;2023-12-04T07:31:42;17.80;;;10.85;;
68888;SDS011;55930;47.412;8.790;2023-12-04T07:35:05;23.35;;;12.63;;
68888;SDS011;55930;47.412;8.790;2023-12-04T07:38:26;19.60;;;11.63;;
68888;SDS011;55930;47.412;8.790;2023-12-04T07:41:47;20.55;;;12.48;;
68888;SDS011;55930;47.412;8.790;2023-12-04T07:45:07;20.00;;;12.63;;
68888;SDS011;55930;47.412;8.790;2023-12-04T07:48:30;17.90;;;11.73;;
68888;SDS011;55930;47.412;8.790;2023-12-04T07:51:51;22.63;;;13.55;;
68888;SDS011;55930;47.412;8.790;2023-12-04T07:55:11;22.53;;;11.83;;
68888;SDS011;55930;47.412;8.790;2023-12-04T07:58:32;17.73;;;10.50;;
68888;SDS011;55930;47.412;8.790;2023-12-04T08:01:54;19.92;;;11.73;;
68888;SDS011;55930;47.412;8.790;2023-12-04T08:05:15;21.07;;;12.33;;
68888;SDS011;55930;47.412;8.790;2023-12-04T08:08:35;21.03;;;12.00;;
68888;SDS011;55930;47.412;8.790;2023-12-04T08:11:56;20.13;;;12.17;;
68888;SDS011;55930;47.412;8.790;2023-12-04T08:15:16;20.10;;;11.70;;
68888;SDS011;55930;47.412;8.790;2023-12-04T08:18:36;19.43;;;10.87;;
68888;SDS011;55930;47.412;8.790;2023-12-04T08:21:57;22.83;;;12.43;;
68888;SDS011;55930;47.412;8.790;2023-12-04T08:25:18;21.40;;;12.45;;
68888;SDS011;55930;47.412;8.790;2023-12-04T08:28:38;21.40;;;12.40;;
68888;SDS011;55930;47.412;8.790;2023-12-04T08:32:01;24.48;;;15.05;;
68888;SDS011;55930;47.412;8.790;2023-12-04T08:35:24;21.65;;;12.90;;
68888;SDS011;55930;47.412;8.790;2023-12-04T08:38:44;24.93;;;14.33;;
68888;SDS011;55930;47.412;8.790;2023-12-04T08:42:05;20.77;;;12.33;;
68888;SDS011;55930;47.412;8.790;2023-12-04T08:45:25;21.47;;;12.67;;
68888;SDS011;55930;47.412;8.790;2023-12-04T08:48:46;22.57;;;12.87;;
68888;SDS011;55930;47.412;8.790;2023-12-04T08:52:06;21.80;;;12.33;;
68888;SDS011;55930;47.412;8.790;2023-12-04T08:55:27;23.05;;;13.15;;
68888;SDS011;55930;47.412;8.790;2023-12-04T08:58:50;22.33;;;12.43;;
68888;SDS011;55930;47.412;8.790;2023-12-04T09:02:10;21.58;;;12.98;;
68888;SDS011;55930;47.412;8.790;2023-12-04T09:05:31;27.90;;;13.80;;
68888;SDS011;55930;47.412;8.790;2023-12-04T09:08:51;26.70;;;15.43;;
68888;SDS011;55930;47.412;8.790;2023-12-04T09:12:11;24.87;;;12.90;;
68888;SDS011;55930;47.412;8.790;2023-12-04T09:15:32;21.77;;;12.53;;
68888;SDS011;55930;47.412;8.790;2023-12-04T09:18:52;20.60;;;12.80;;
68888;SDS011;55930;47.412;8.790;2023-12-04T09:22:13;20.77;;;12.88;;
68888;SDS011;55930;47.412;8.790;2023-12-04T09:25:36;21.05;;;11.55;;
68888;SDS011;55930;47.412;8.790;2023-12-04T09:28:56;21.10;;;12.40;;
68888;SDS011;55930;47.412;8.790;2023-12-04T09:32:17;23.87;;;13.90;;
68888;SDS011;55930;47.412;8.790;2023-12-04T09:35:38;31.40;;;19.38;;
68888;SDS011;55930;47.412;8.790;2023-12-04T09:39:01;29.60;;;17.75;;
68888;SDS011;55930;47.412;8.790;2023-12-04T09:42:23;22.33;;;13.60;;
68888;SDS011;55930;47.412;8.790;2023-12-04T09:45:44;23.50;;;12.43;;
68888;SDS011;55930;47.412;8.790;2023-12-04T09:49:05;27.27;;;18.27;;
68888;SDS011;55930;47.412;8.790;2023-12-04T09:52:27;25.25;;;15.90;;
68888;SDS011;55930;47.412;8.790;2023-12-04T09:55:48;23.73;;;13.00;;
68888;SDS011;55930;47.412;8.790;2023-12-04T09:59:09;16.08;;;9.82;;
68888;SDS011;55930;47.412;8.790;2023-12-04T10:02:33;21.40;;;13.40;;
68888;SDS011;55930;47.412;8.790;2023-12-04T10:05:54;21.30;;;12.25;;
68888;SDS011;55930;47.412;8.790;2023-12-04T10:09:16;18.43;;;12.07;;
68888;SDS011;55930;47.412;8.790;2023-12-04T10:12:39;22.60;;;13.27;;
68888;SDS011;55930;47.412;8.790;2023-12-04T10:15:59;19.17;;;12.07;;
68888;SDS011;55930;47.412;8.790;2023-12-04T10:19:21;23.93;;;13.13;;
68888;SDS011;55930;47.412;8.790;2023-12-04T10:26:16;18.25;;;10.98;;
68888;SDS011;55930;47.412;8.790;2023-12-04T10:29:44;19.33;;;12.30;;
68888;SDS011;55930;47.412;8.790;2023-12-04T10:33:07;18.98;;;11.82;;
68888;SDS011;55930;47.412;8.790;2023-12-04T10:36:28;20.30;;;12.20;;
68888;SDS011;55930;47.412;8.790;2023-12-04T10:39:51;18.15;;;11.73;;
68888;SDS011;55930;47.412;8.790;2023-12-04T10:43:17;21.63;;;12.90;;
68888;SDS011;55930;47.412;8.790;2023-12-04T10:46:43;20.65;;;12.50;;
68888;SDS011;55930;47.412;8.790;2023-12-04T10:50:08;22.63;;;14.50;;
68888;SDS011;55930;47.412;8.790;2023-12-04T10:53:29;21.77;;;14.40;;
68888;SDS011;55930;47.412;8.790;2023-12-04T10:56:49;19.43;;;12.00;;
68888;SDS011;55930;47.412;8.790;2023-12-04T11:00:12;20.95;;;12.93;;
68888;SDS011;55930;47.412;8.790;2023-12-04T11:03:37;21.17;;;13.70;;
68888;SDS011;55930;47.412;8.790;2023-12-04T11:07:03;25.60;;;16.30;;
68888;SDS011;55930;47.412;8.790;2023-12-04T11:10:26;24.20;;;14.35;;
68888;SDS011;55930;47.412;8.790;2023-12-04T11:13:49;18.70;;;12.40;;
68888;SDS011;55930;47.412;8.790;2023-12-04T11:17:14;21.75;;;13.65;;
68888;SDS011;55930;47.412;8.790;2023-12-04T11:20:39;22.00;;;13.57;;
68888;SDS011;55930;47.412;8.790;2023-12-04T11:24:04;23.73;;;13.23;;
68888;SDS011;55930;47.412;8.790;2023-12-04T11:27:26;19.65;;;12.85;;
68888;SDS011;55930;47.412;8.790;2023-12-04T11:30:46;19.93;;;13.13;;
68888;SDS011;55930;47.412;8.790;2023-12-04T11:34:08;22.47;;;14.20;;
68888;SDS011;55930;47.412;8.790;2023-12-04T11:37:31;21.00;;;13.45;;
68888;SDS011;55930;47.412;8.790;2023-12-04T11:40:52;23.70;;;15.50;;
68888;SDS011;55930;47.412;8.790;2023-12-04T11:44:13;23.52;;;14.23;;
68888;SDS011;55930;47.412;8.790;2023-12-04T11:55:05;18.95;;;12.90;;
68888;SDS011;55930;47.412;8.790;2023-12-04T11:58:26;21.73;;;13.55;;
68888;SDS011;55930;47.412;8.790;2023-12-04T12:01:48;24.37;;;13.60;;
68888;SDS011;55930;47.412;8.790;2023-12-04T12:05:11;24.02;;;14.55;;
68888;SDS011;55930;47.412;8.790;2023-12-04T12:08:32;23.35;;;14.52;;
68888;SDS011;55930;47.412;8.790;2023-12-04T12:11:53;23.42;;;13.68;;
68888;SDS011;55930;47.412;8.790;2023-12-04T12:15:14;21.23;;;13.57;;
68888;SDS011;55930;47.412;8.790;2023-12-04T12:18:34;21.93;;;13.63;;
68888;SDS011;55930;47.412;8.790;2023-12-04T12:21:55;21.75;;;13.85;;
68888;SDS011;55930;47.412;8.790;2023-12-04T12:25:18;21.65;;;13.70;;
68888;SDS011;55930;47.412;8.790;2023-12-04T12:28:39;22.37;;;14.73;;
68888;SDS011;55930;47.412;8.790;2023-12-04T12:32:02;24.33;;;13.93;;
68888;SDS011;55930;47.412;8.790;2023-12-04T12:35:25;24.50;;;15.52;;
68888;SDS011;55930;47.412;8.790;2023-12-04T12:38:45;19.43;;;12.30;;
68888;SDS011;55930;47.412;8.790;2023-12-04T12:42:09;24.00;;;14.18;;
68888;SDS011;55930;47.412;8.790;2023-12-04T12:45:38;21.02;;;13.13;;
68888;SDS011;55930;47.412;8.790;2023-12-04T12:48:59;22.83;;;14.30;;
68888;SDS011;55930;47.412;8.790;2023-12-04T12:52:20;24.57;;;14.23;;
68888;SDS011;55930;47.412;8.790;2023-12-04T12:55:40;23.60;;;13.07;;
68888;SDS011;55930;47.412;8.790;2023-12-04T12:59:02;21.05;;;14.18;;
68888;SDS011;55930;47.412;8.790;2023-12-04T13:02:22;22.67;;;13.67;;
68888;SDS011;55930;47.412;8.790;2023-12-04T13:05:42;21.03;;;13.83;;
68888;SDS011;55930;47.412;8.790;2023-12-04T13:09:03;22.65;;;14.43;;
68888;SDS011;55930;47.412;8.790;2023-12-04T13:12:26;24.88;;;14.48;;
68888;SDS011;55930;47.412;8.790;2023-12-04T13:15:49;22.13;;;13.52;;
68888;SDS011;55930;47.412;8.790;2023-12-04T13:19:10;23.53;;;14.33;;
68888;SDS011;55930;47.412;8.790;2023-12-04T13:22:30;19.97;;;12.97;;
68888;SDS011;55930;47.412;8.790;2023-12-04T13:25:53;28.27;;;18.27;;
68888;SDS011;55930;47.412;8.790;2023-12-04T13:29:16;32.17;;;18.33;;
68888;SDS011;55930;47.412;8.790;2023-12-04T13:32:39;24.40;;;16.67;;
68888;SDS011;55930;47.412;8.790;2023-12-04T13:35:59;23.63;;;15.40;;
68888;SDS011;55930;47.412;8.790;2023-12-04T13:39:19;21.60;;;12.83;;
68888;SDS011;55930;47.412;8.790;2023-12-04T13:42:56;19.52;;;12.63;;
68888;SDS011;55930;47.412;8.790;2023-12-04T13:46:35;21.90;;;14.15;;
68888;SDS011;55930;47.412;8.790;2023-12-04T13:49:55;23.57;;;14.63;;
68888;SDS011;55930;47.412;8.790;2023-12-04T13:53:16;23.53;;;15.00;;
68888;SDS011;55930;47.412;8.790;2023-12-04T13:56:40;22.38;;;14.65;;
68888;SDS011;55930;47.412;8.790;2023-12-04T14:00:12;23.67;;;14.65;;
68888;SDS011;55930;47.412;8.790;2023-12-04T14:03:33;26.73;;;16.00;;
68888;SDS011;55930;47.412;8.790;2023-12-04T14:06:54;26.05;;;15.43;;
68888;SDS011;55930;47.412;8.790;2023-12-04T14:10:15;27.88;;;16.75;;
68888;SDS011;55930;47.412;8.790;2023-12-04T14:13:36;27.43;;;16.80;;
68888;SDS011;55930;47.412;8.790;2023-12-04T14:16:56;31.50;;;16.73;;
68888;SDS011;55930;47.412;8.790;2023-12-04T14:20:16;27.23;;;17.63;;
68888;SDS011;55930;47.412;8.790;2023-12-04T14:23:38;25.10;;;16.35;;
68888;SDS011;55930;47.412;8.790;2023-12-04T14:26:58;19.97;;;13.63;;
68888;SDS011;55930;47.412;8.790;2023-12-04T14:30:19;21.23;;;13.70;;
68888;SDS011;55930;47.412;8.790;2023-12-04T14:33:39;21.77;;;14.83;;
68888;SDS011;55930;47.412;8.790;2023-12-04T14:37:00;23.60;;;13.97;;
68888;SDS011;55930;47.412;8.790;2023-12-04T14:40:20;22.67;;;13.63;;
68888;SDS011;55930;47.412;8.790;2023-12-04T14:43:40;24.40;;;15.77;;
68888;SDS011;55930;47.412;8.790;2023-12-04T14:47:02;23.80;;;16.70;;
68888;SDS011;55930;47.412;8.790;2023-12-04T14:50:24;28.92;;;17.23;;
68888;SDS011;55930;47.412;8.790;2023-12-04T14:53:44;24.70;;;16.67;;
68888;SDS011;55930;47.412;8.790;2023-12-04T14:57:23;28.73;;;19.23;;
68888;SDS011;55930;47.412;8.790;2023-12-04T15:01:03;23.40;;;15.07;;
68888;SDS011;55930;47.412;8.790;2023-12-04T15:04:42;23.23;;;14.65;;
68888;SDS011;55930;47.412;8.790;2023-12-04T15:08:23;24.60;;;14.73;;
68888;SDS011;55930;47.412;8.790;2023-12-04T15:12:04;25.48;;;15.90;;
68888;SDS011;55930;47.412;8.790;2023-12-04T15:15:42;23.42;;;14.35;;
68888;SDS011;55930;47.412;8.790;2023-12-04T15:19:21;24.90;;;14.80;;
68888;SDS011;55930;47.412;8.790;2023-12-04T15:23:02;22.77;;;14.45;;
68888;SDS011;55930;47.412;8.790;2023-12-04T15:26:24;23.45;;;15.10;;
68888;SDS011;55930;47.412;8.790;2023-12-04T15:29:45;24.10;;;14.67;;
68888;SDS011;55930;47.412;8.790;2023-12-04T15:33:05;26.27;;;16.17;;
68888;SDS011;55930;47.412;8.790;2023-12-04T15:36:26;28.97;;;17.13;;
68888;SDS011;55930;47.412;8.790;2023-12-04T15:39:51;28.25;;;16.27;;
68888;SDS011;55930;47.412;8.790;2023-12-04T15:43:11;27.30;;;17.15;;
68888;SDS011;55930;47.412;8.790;2023-12-04T15:46:31;27.43;;;17.13;;
68888;SDS011;55930;47.412;8.790;2023-12-04T15:49:54;31.15;;;17.85;;
68888;SDS011;55930;47.412;8.790;2023-12-04T15:53:14;29.40;;;17.17;;
68888;SDS011;55930;47.412;8.790;2023-12-04T15:56:34;32.07;;;17.63;;
68888;SDS011;55930;47.412;8.790;2023-12-04T15:59:55;33.03;;;18.33;;
68888;SDS011;55930;47.412;8.790;2023-12-04T16:03:19;37.35;;;20.33;;
68888;SDS011;55930;47.412;8.790;2023-12-04T16:06:39;36.57;;;20.23;;
68888;SDS011;55930;47.412;8.790;2023-12-04T16:09:59;42.57;;;24.07;;
68888;SDS011;55930;47.412;8.790;2023-12-04T16:13:20;42.17;;;22.03;;
68888;SDS011;55930;47.412;8.790;2023-12-04T16:16:41;45.85;;;22.13;;
68888;SDS011;55930;47.412;8.790;2023-12-04T16:20:02;38.83;;;21.20;;
68888;SDS011;55930;47.412;8.790;2023-12-04T16:23:25;34.00;;;19.30;;
68888;SDS011;55930;47.412;8.790;2023-12-04T16:26:46;33.13;;;19.10;;
68888;SDS011;55930;47.412;8.790;2023-12-04T16:30:06;37.53;;;21.07;;
68888;SDS011;55930;47.412;8.790;2023-12-04T16:33:27;31.50;;;17.83;;
68888;SDS011;55930;47.412;8.790;2023-12-04T16:36:47;32.93;;;19.90;;
68888;SDS011;55930;47.412;8.790;2023-12-04T16:40:08;28.37;;;16.30;;
68888;SDS011;55930;47.412;8.790;2023-12-04T16:43:29;31.07;;;16.47;;
68888;SDS011;55930;47.412;8.790;2023-12-04T16:46:49;26.60;;;16.23;;
68888;SDS011;55930;47.412;8.790;2023-12-04T16:50:15;26.48;;;16.67;;
68888;SDS011;55930;47.412;8.790;2023-12-04T16:53:38;34.28;;;19.55;;
68888;SDS011;55930;47.412;8.790;2023-12-04T16:56:59;34.67;;;21.10;;
68888;SDS011;55930;47.412;8.790;2023-12-04T17:00:19;33.97;;;19.83;;
68888;SDS011;55930;47.412;8.790;2023-12-04T17:03:39;28.70;;;18.47;;
68888;SDS011;55930;47.412;8.790;2023-12-04T17:07:00;29.13;;;16.90;;
68888;SDS011;55930;47.412;8.790;2023-12-04T17:10:20;28.97;;;18.17;;
68888;SDS011;55930;47.412;8.790;2023-12-04T17:13:44;36.88;;;21.15;;
68888;SDS011;55930;47.412;8.790;2023-12-04T17:17:07;32.70;;;19.90;;
68888;SDS011;55930;47.412;8.790;2023-12-04T17:20:28;33.23;;;19.37;;
68888;SDS011;55930;47.412;8.790;2023-12-04T17:23:50;26.70;;;16.23;;
68888;SDS011;55930;47.412;8.790;2023-12-04T17:27:11;26.40;;;16.33;;
68888;SDS011;55930;47.412;8.790;2023-12-04T17:30:32;33.40;;;19.20;;
68888;SDS011;55930;47.412;8.790;2023-12-04T17:33:52;50.27;;;29.50;;
68888;SDS011;55930;47.412;8.790;2023-12-04T17:37:13;36.30;;;19.90;;
68888;SDS011;55930;47.412;8.790;2023-12-04T17:40:34;42.00;;;22.23;;
68888;SDS011;55930;47.412;8.790;2023-12-04T17:43:54;38.67;;;22.23;;
68888;SDS011;55930;47.412;8.790;2023-12-04T17:47:15;36.63;;;20.03;;
68888;SDS011;55930;47.412;8.790;2023-12-04T17:50:35;39.73;;;21.63;;
68888;SDS011;55930;47.412;8.790;2023-12-04T17:53:58;39.50;;;22.23;;
68888;SDS011;55930;47.412;8.790;2023-12-04T17:57:18;38.97;;;23.43;;
68888;SDS011;55930;47.412;8.790;2023-12-04T18:00:39;39.23;;;24.77;;
68888;SDS011;55930;47.412;8.790;2023-12-04T18:04:01;38.95;;;23.38;;
68888;SDS011;55930;47.412;8.790;2023-12-04T18:07:23;38.83;;;22.38;;
68888;SDS011;55930;47.412;8.790;2023-12-04T18:10:43;31.67;;;18.87;;
68888;SDS011;55930;47.412;8.790;2023-12-04T18:14:03;44.93;;;26.73;;
68888;SDS011;55930;47.412;8.790;2023-12-04T18:17:24;45.60;;;24.63;;
68888;SDS011;55930;47.412;8.790;2023-12-04T18:20:47;49.72;;;27.75;;
68888;SDS011;55930;47.412;8.790;2023-12-04T18:24:08;47.53;;;27.87;;
68888;SDS011;55930;47.412;8.790;2023-12-04T18:27:28;50.83;;;30.27;;
68888;SDS011;55930;47.412;8.790;2023-12-04T18:34:10;41.50;;;22.40;;
68888;SDS011;55930;47.412;8.790;2023-12-04T18:37:32;40.10;;;22.73;;
68888;SDS011;55930;47.412;8.790;2023-12-04T18:40:59;43.78;;;23.33;;
68888;SDS011;55930;47.412;8.790;2023-12-04T18:44:20;33.83;;;17.77;;
68888;SDS011;55930;47.412;8.790;2023-12-04T18:47:44;40.87;;;23.00;;
68888;SDS011;55930;47.412;8.790;2023-12-04T18:51:08;51.17;;;24.73;;
68888;SDS011;55930;47.412;8.790;2023-12-04T18:54:29;46.00;;;23.02;;
68888;SDS011;55930;47.412;8.790;2023-12-04T18:57:50;56.70;;;27.60;;
68888;SDS011;55930;47.412;8.790;2023-12-04T19:01:11;60.72;;;26.48;;
68888;SDS011;55930;47.412;8.790;2023-12-04T19:04:31;59.83;;;26.40;;
68888;SDS011;55930;47.412;8.790;2023-12-04T19:07:54;58.35;;;26.38;;
68888;SDS011;55930;47.412;8.790;2023-12-04T19:11:14;64.50;;;30.40;;
68888;SDS011;55930;47.412;8.790;2023-12-04T19:14:34;60.33;;;26.93;;
68888;SDS011;55930;47.412;8.790;2023-12-04T19:21:19;59.20;;;27.27;;
68888;SDS011;55930;47.412;8.790;2023-12-04T19:24:39;55.37;;;24.20;;
68888;SDS011;55930;47.412;8.790;2023-12-04T19:28:03;58.28;;;25.63;;
68888;SDS011;55930;47.412;8.790;2023-12-04T19:31:23;51.90;;;26.38;;
68888;SDS011;55930;47.412;8.790;2023-12-04T19:34:46;55.57;;;28.60;;
68888;SDS011;55930;47.412;8.790;2023-12-04T19:38:09;55.85;;;24.98;;
68888;SDS011;55930;47.412;8.790;2023-12-04T19:41:29;50.77;;;25.87;;
68888;SDS011;55930;47.412;8.790;2023-12-04T19:44:56;49.00;;;25.75;;
68888;SDS011;55930;47.412;8.790;2023-12-04T19:48:16;52.40;;;24.43;;
68888;SDS011;55930;47.412;8.790;2023-12-04T19:51:42;38.47;;;21.97;;
68888;SDS011;55930;47.412;8.790;2023-12-04T19:55:04;40.30;;;20.55;;
68888;SDS011;55930;47.412;8.790;2023-12-04T19:58:25;40.08;;;20.63;;
68888;SDS011;55930;47.412;8.790;2023-12-04T20:01:45;46.10;;;23.43;;